Time;durP1;ratioP1;P1;durP2;ratioP2;P2;SDS_P1;SDS_P2;PMS_P1;PMS_P2;Temp;Humidity;BMP_temperature;BMP_pressure;BME280_temperature;BME280_humidity;BME280_pressure;Samples;Min_cycle;Max_cycle;Signal;HPM_P1;HPM_P2
2022/01/31 05:16:53;;;;;;;;;6.25;5.00;;;;;;;;6492113;31;9743;-52
2022/01/31 05:22:55;;;;;;;;;4.00;1.50;;;;;;;;6492109;39;9557;-48
2022/01/31 05:28:59;;;;;;;;;6.75;5.00;;;;;;;;6494332;39;8839;-51
2022/01/31 05:35:03;;;;;;;;;5.67;5.67;;;;;;;;6493953;31;8943;-52
2022/01/31 05:41:08;;;;;;;;;9.00;6.00;;;;;;;;6493431;39;9057;-52
2022/01/31 05:47:10;;;;;;;;;4.00;4.00;;;;;;;;6494105;31;8887;-53
2022/01/31 05:53:13;;;;;;;;;6.25;5.50;;;;;;;;6492960;39;9052;-53
2022/01/31 05:59:16;;;;;;;;;6.50;6.50;;;;;;;;6493369;39;8914;-53
2022/01/31 06:05:17;;;;;;;;;7.50;7.50;;;;;;;;6492745;39;8939;-52
2022/01/31 06:11:20;;;;;;;;;6.75;6.00;;;;;;;;6493100;39;10063;-51
2022/01/31 06:17:22;;;;;;;;;10.00;8.00;;;;;;;;6492894;46;8863;-47
2022/01/31 06:23:25;;;;;;;;;7.00;6.50;;;;;;;;6493445;39;9030;-51
2022/01/31 06:29:28;;;;;;;;;9.00;7.00;;;;;;;;6493792;39;8811;-57
2022/01/31 06:35:41;;;;;;;;;13.00;12.00;;;;;;;;6491980;39;9599;-48
2022/01/31 06:41:44;;;;;;;;;9.75;7.00;;;;;;;;6492997;39;9640;-52
2022/01/31 06:47:46;;;;;;;;;14.50;13.25;;;;;;;;6493700;39;8876;-50
2022/01/31 06:53:49;;;;;;;;;17.00;12.75;;;;;;;;6492494;39;8851;-51
2022/01/31 06:59:51;;;;;;;;;10.00;7.50;;;;;;;;6493059;39;8884;-50
2022/01/31 07:05:53;;;;;;;;;13.00;13.00;;;;;;;;6492724;31;8894;-50
2022/01/31 07:11:59;;;;;;;;;17.00;15.25;;;;;;;;6493044;39;8990;-50
2022/01/31 07:18:01;;;;;;;;;10.00;10.00;;;;;;;;6493163;39;9622;-50
2022/01/31 07:30:13;;;;;;;;;9.25;9.25;;;;;;;;6493252;39;9570;-50
2022/01/31 07:36:16;;;;;;;;;10.50;9.00;;;;;;;;6490613;31;9038;-50
2022/01/31 07:42:19;;;;;;;;;9.25;9.25;;;;;;;;6490994;31;8915;-52
2022/01/31 07:48:22;;;;;;;;;12.25;9.25;;;;;;;;6491721;31;8870;-53
2022/01/31 07:54:25;;;;;;;;;11.50;9.00;;;;;;;;6490325;31;8908;-52
2022/01/31 08:00:29;;;;;;;;;9.75;9.25;;;;;;;;6492434;39;8949;-53
2022/01/31 08:06:32;;;;;;;;;10.00;8.50;;;;;;;;6490025;39;8983;-54
2022/01/31 08:12:36;;;;;;;;;13.25;9.25;;;;;;;;6489022;39;9621;-55
2022/01/31 08:18:42;;;;;;;;;10.00;10.00;;;;;;;;6488871;46;9002;-54
2022/01/31 08:24:45;;;;;;;;;10.00;8.25;;;;;;;;6486852;39;8962;-55
2022/01/31 08:31:34;;;;;;;;;7.00;5.00;;;;;;;;6488668;46;8876;-52
2022/01/31 08:37:14;;;;;;;;;8.75;8.75;;;;;;;;6487581;39;8979;-48
2022/01/31 08:43:18;;;;;;;;;7.00;7.00;;;;;;;;6488026;39;8963;-51
2022/01/31 08:49:20;;;;;;;;;9.50;7.50;;;;;;;;6489949;36;8938;-50
2022/01/31 08:55:23;;;;;;;;;7.50;7.00;;;;;;;;6488621;39;9062;-53
2022/01/31 09:01:27;;;;;;;;;16.75;16.00;;;;;;;;6491215;39;8994;-50
2022/01/31 09:07:31;;;;;;;;;7.25;7.25;;;;;;;;6489119;46;8912;-50
2022/01/31 09:13:34;;;;;;;;;8.00;7.25;;;;;;;;6489178;39;8962;-48
2022/01/31 09:19:37;;;;;;;;;9.75;7.00;;;;;;;;6490470;39;8986;-52
2022/01/31 09:25:45;;;;;;;;;8.50;8.50;;;;;;;;6489969;39;8892;-51
2022/01/31 09:31:48;;;;;;;;;10.50;7.75;;;;;;;;6490133;46;8875;-51
2022/01/31 09:37:50;;;;;;;;;13.25;10.00;;;;;;;;6488624;39;9425;-49
2022/01/31 09:44:13;;;;;;;;;10.25;10.00;;;;;;;;6490003;39;8916;-56
2022/01/31 09:50:16;;;;;;;;;7.00;7.00;;;;;;;;6489677;39;9009;-50
2022/01/31 09:56:25;;;;;;;;;10.00;10.00;;;;;;;;6489493;39;8960;-51
2022/01/31 10:02:29;;;;;;;;;10.75;7.50;;;;;;;;6490895;39;9058;-53
2022/01/31 10:08:32;;;;;;;;;15.75;15.50;;;;;;;;6488369;39;8954;-51
2022/01/31 10:21:04;;;;;;;;;5.00;5.00;;;;;;;;6489697;39;8916;-51
2022/01/31 10:27:13;;;;;;;;;12.00;11.00;;;;;;;;6489605;39;8939;-51
2022/01/31 10:33:18;;;;;;;;;7.50;7.00;;;;;;;;6490611;31;8904;-52
2022/01/31 10:52:11;;;;;;;;;5.25;5.25;;;;;;;;6490415;39;8923;-52
2022/01/31 10:58:14;;;;;;;;;6.25;6.25;;;;;;;;6489082;46;8955;-53
2022/01/31 11:04:17;;;;;;;;;6.75;5.00;;;;;;;;6488903;39;8931;-54
2022/01/31 11:10:29;;;;;;;;;7.00;5.50;;;;;;;;6489185;39;8948;-51
2022/01/31 11:16:32;;;;;;;;;4.50;4.50;;;;;;;;6489661;39;8978;-51
2022/01/31 11:22:37;;;;;;;;;9.25;6.00;;;;;;;;6487712;46;9054;-53
2022/01/31 11:28:49;;;;;;;;;10.50;6.50;;;;;;;;6489363;39;9015;-52
2022/01/31 11:34:52;;;;;;;;;7.50;7.00;;;;;;;;6488854;39;8951;-54
2022/01/31 11:41:03;;;;;;;;;5.00;5.00;;;;;;;;6489395;39;9034;-52
2022/01/31 11:47:08;;;;;;;;;6.50;5.50;;;;;;;;6488433;31;8935;-56
2022/01/31 11:53:14;;;;;;;;;7.50;6.00;;;;;;;;6488789;39;8891;-55
2022/01/31 11:59:19;;;;;;;;;4.25;4.25;;;;;;;;6489541;39;8972;-51
2022/01/31 12:05:23;;;;;;;;;5.25;5.25;;;;;;;;6488576;39;8919;-50
2022/01/31 12:11:28;;;;;;;;;6.67;6.67;;;;;;;;6489277;46;8920;-52
2022/01/31 12:18:05;;;;;;;;;5.75;4.75;;;;;;;;6488648;39;8915;-55
2022/01/31 12:24:20;;;;;;;;;5.75;5.75;;;;;;;;6491489;39;8908;-54
2022/01/31 12:30:36;;;;;;;;;16.75;16.75;;;;;;;;6491810;39;9002;-52
2022/01/31 12:36:38;;;;;;;;;10.00;6.25;;;;;;;;6490915;46;8916;-52
2022/01/31 12:43:24;;;;;;;;;7.75;6.50;;;;;;;;6491746;47;8911;-50
2022/01/31 12:49:28;;;;;;;;;4.00;4.00;;;;;;;;6488607;39;8925;-51
2022/01/31 12:55:31;;;;;;;;;8.00;5.25;;;;;;;;6491740;31;8931;-49
2022/01/31 13:01:41;;;;;;;;;8.00;5.75;;;;;;;;6490412;39;8990;-54
2022/01/31 13:07:43;;;;;;;;;9.75;6.75;;;;;;;;6490449;47;8920;-52
2022/01/31 13:13:46;;;;;;;;;8.00;8.00;;;;;;;;6489487;39;8936;-51
2022/01/31 13:19:54;;;;;;;;;5.00;5.00;;;;;;;;6490593;39;8986;-51
2022/01/31 13:25:58;;;;;;;;;10.75;10.75;;;;;;;;6492313;31;9062;-53
2022/01/31 13:32:20;;;;;;;;;5.00;5.00;;;;;;;;6491595;36;8900;-54
2022/01/31 13:38:22;;;;;;;;;17.25;15.50;;;;;;;;6491315;39;9653;-51
2022/01/31 13:44:25;;;;;;;;;24.00;20.00;;;;;;;;6491514;46;8913;-50
2022/01/31 13:50:34;;;;;;;;;57.50;44.50;;;;;;;;6492131;31;8901;-53
2022/01/31 13:56:44;;;;;;;;;20.00;18.50;;;;;;;;6490685;31;8905;-54
2022/01/31 14:02:59;;;;;;;;;54.25;47.00;;;;;;;;6492518;39;8913;-51
2022/01/31 14:09:06;;;;;;;;;34.50;33.00;;;;;;;;6493560;31;8939;-52
2022/01/31 14:15:09;;;;;;;;;11.50;11.00;;;;;;;;6491682;46;9048;-51
2022/01/31 14:21:12;;;;;;;;;25.00;20.75;;;;;;;;6492463;39;8968;-52
2022/01/31 14:27:20;;;;;;;;;18.00;13.25;;;;;;;;6492393;46;8909;-55
2022/01/31 14:33:23;;;;;;;;;9.25;8.75;;;;;;;;6492120;46;8947;-52
2022/01/31 14:39:36;;;;;;;;;3.00;1.00;;;;;;;;6491345;46;8898;-54
2022/01/31 14:52:06;;;;;;;;;10.25;9.50;;;;;;;;6492619;31;8810;-48
2022/01/31 14:58:08;;;;;;;;;13.25;12.00;;;;;;;;6492054;46;8935;-50
2022/01/31 15:04:21;;;;;;;;;18.50;17.25;;;;;;;;6492554;39;8905;-51
2022/01/31 15:10:24;;;;;;;;;15.25;14.25;;;;;;;;6493701;39;8944;-53
2022/01/31 15:16:29;;;;;;;;;12.25;12.25;;;;;;;;6491747;39;9028;-51
2022/01/31 15:22:33;;;;;;;;;12.25;10.75;;;;;;;;6493882;39;8864;-53
2022/01/31 15:28:37;;;;;;;;;12.00;11.00;;;;;;;;6493068;39;9458;-52
2022/01/31 15:34:39;;;;;;;;;8.00;8.00;;;;;;;;6492184;46;8869;-52
2022/01/31 15:40:41;;;;;;;;;11.50;9.25;;;;;;;;6492455;31;8861;-50
2022/01/31 15:46:44;;;;;;;;;12.50;7.75;;;;;;;;6493122;31;8856;-53
2022/01/31 15:52:47;;;;;;;;;17.00;13.00;;;;;;;;6492941;39;8837;-55
2022/01/31 15:58:51;;;;;;;;;7.00;5.00;;;;;;;;6491252;46;8904;-52
2022/01/31 16:04:53;;;;;;;;;14.25;14.25;;;;;;;;6492319;39;8912;-52
2022/01/31 16:10:56;;;;;;;;;14.75;13.75;;;;;;;;6492932;39;8940;-52
2022/01/31 16:17:18;;;;;;;;;14.50;13.75;;;;;;;;6515398;36;8888;-55
2022/01/31 16:23:21;;;;;;;;;14.00;11.50;;;;;;;;6493167;39;8831;-51
2022/01/31 16:29:27;;;;;;;;;16.75;15.25;;;;;;;;6490962;39;8844;-54
2022/01/31 16:35:29;;;;;;;;;14.25;13.50;;;;;;;;6492095;39;9522;-52
2022/01/31 16:41:31;;;;;;;;;12.75;11.50;;;;;;;;6492194;39;8950;-54
2022/01/31 16:47:33;;;;;;;;;11.00;10.00;;;;;;;;6491661;39;8917;-54
2022/01/31 16:53:36;;;;;;;;;13.75;10.50;;;;;;;;6492730;39;9480;-53
2022/01/31 16:59:38;;;;;;;;;11.25;10.75;;;;;;;;6491523;31;9072;-50
2022/01/31 17:05:42;;;;;;;;;8.25;7.25;;;;;;;;6489401;39;8917;-53
2022/01/31 17:11:44;;;;;;;;;18.50;14.00;;;;;;;;6489830;31;9044;-51
2022/01/31 17:17:47;;;;;;;;;15.00;11.50;;;;;;;;6490684;39;8948;-52
2022/01/31 17:23:49;;;;;;;;;15.50;14.25;;;;;;;;6494550;39;8839;-52
2022/01/31 17:29:52;;;;;;;;;16.50;14.00;;;;;;;;6493255;31;8903;-53
2022/01/31 17:35:54;;;;;;;;;15.50;11.50;;;;;;;;6493058;46;8874;-54
2022/01/31 17:42:01;;;;;;;;;25.25;20.00;;;;;;;;6494011;39;9870;-57
2022/01/31 17:48:08;;;;;;;;;21.50;17.00;;;;;;;;6493241;39;8852;-52
2022/01/31 17:54:10;;;;;;;;;18.00;16.00;;;;;;;;6494019;46;8871;-53
2022/01/31 18:00:13;;;;;;;;;19.50;15.50;;;;;;;;6493203;39;8892;-49
2022/01/31 18:06:15;;;;;;;;;19.00;16.50;;;;;;;;6493975;39;8874;-53
2022/01/31 18:12:17;;;;;;;;;26.00;21.50;;;;;;;;6494168;31;8983;-54
2022/01/31 18:18:22;;;;;;;;;20.25;17.50;;;;;;;;6493005;39;8883;-52
2022/01/31 18:24:26;;;;;;;;;25.25;24.25;;;;;;;;6494337;39;9536;-55
2022/01/31 18:30:28;;;;;;;;;24.75;22.50;;;;;;;;6493401;31;8900;-50
2022/01/31 18:36:31;;;;;;;;;32.25;26.00;;;;;;;;6493458;39;8809;-52
2022/01/31 18:42:33;;;;;;;;;23.00;19.75;;;;;;;;6492822;31;8888;-51
2022/01/31 18:48:36;;;;;;;;;27.75;26.00;;;;;;;;6494073;31;8900;-53
2022/01/31 18:54:38;;;;;;;;;29.25;22.50;;;;;;;;6493999;39;8868;-52
2022/01/31 19:00:42;;;;;;;;;25.75;25.75;;;;;;;;6492773;31;8880;-52
2022/01/31 19:06:44;;;;;;;;;27.00;22.50;;;;;;;;6492088;39;9040;-52
2022/01/31 19:12:54;;;;;;;;;22.50;20.50;;;;;;;;6491550;39;8954;-53
2022/01/31 19:19:10;;;;;;;;;20.75;15.75;;;;;;;;6490600;46;8946;-54
2022/01/31 19:25:12;;;;;;;;;20.50;18.25;;;;;;;;6491208;46;8944;-53
2022/01/31 19:31:15;;;;;;;;;28.00;25.00;;;;;;;;6491559;39;8955;-52
2022/01/31 19:37:17;;;;;;;;;26.50;23.75;;;;;;;;6490664;39;8884;-53
2022/01/31 19:43:21;;;;;;;;;26.00;20.25;;;;;;;;6490285;46;8904;-50
2022/01/31 19:49:24;;;;;;;;;24.50;20.00;;;;;;;;6491117;39;8927;-51
2022/01/31 19:55:27;;;;;;;;;22.50;22.50;;;;;;;;6490651;46;8896;-52
2022/01/31 20:01:30;;;;;;;;;28.75;25.75;;;;;;;;6490487;46;9031;-53
2022/01/31 20:07:32;;;;;;;;;28.75;26.00;;;;;;;;6490961;39;8955;-55
2022/01/31 20:13:35;;;;;;;;;27.00;23.67;;;;;;;;6490806;31;8900;-52
2022/01/31 20:19:37;;;;;;;;;24.00;20.50;;;;;;;;6489946;31;8869;-54
2022/01/31 20:25:43;;;;;;;;;26.75;24.00;;;;;;;;6491076;39;8864;-53
2022/01/31 20:31:46;;;;;;;;;31.75;29.50;;;;;;;;6490731;39;8926;-51
2022/01/31 20:37:51;;;;;;;;;20.50;18.00;;;;;;;;6491449;31;8935;-54
2022/01/31 20:43:53;;;;;;;;;28.25;26.50;;;;;;;;6490755;39;8884;-52
2022/01/31 20:49:55;;;;;;;;;28.25;21.25;;;;;;;;6490020;47;8947;-50
2022/01/31 20:55:59;;;;;;;;;28.00;27.50;;;;;;;;6492631;39;8913;-52
2022/01/31 21:02:01;;;;;;;;;25.50;23.25;;;;;;;;6492540;31;8943;-54
2022/01/31 21:08:04;;;;;;;;;27.00;24.75;;;;;;;;6492931;39;8924;-52
2022/01/31 21:14:06;;;;;;;;;28.50;21.75;;;;;;;;6492591;39;8944;-53
2022/01/31 21:20:09;;;;;;;;;29.50;23.50;;;;;;;;6492173;39;8979;-50
2022/01/31 21:26:12;;;;;;;;;29.25;25.00;;;;;;;;6492796;39;8844;-49
2022/01/31 21:32:14;;;;;;;;;30.25;26.25;;;;;;;;6492299;39;8943;-54
2022/01/31 21:38:16;;;;;;;;;28.50;26.75;;;;;;;;6492299;39;8941;-53
2022/01/31 21:44:19;;;;;;;;;32.00;27.25;;;;;;;;6491850;46;8927;-52
2022/01/31 21:50:21;;;;;;;;;36.25;28.75;;;;;;;;6491466;39;8872;-50
2022/01/31 21:56:23;;;;;;;;;30.25;25.50;;;;;;;;6492748;39;9601;-54
2022/01/31 22:02:25;;;;;;;;;36.00;30.00;;;;;;;;6509377;36;8888;-54
2022/01/31 22:08:39;;;;;;;;;34.50;30.50;;;;;;;;6492300;39;8995;-50
2022/01/31 22:14:41;;;;;;;;;31.50;27.50;;;;;;;;6491880;39;8908;-52
2022/01/31 22:20:47;;;;;;;;;27.75;22.00;;;;;;;;6491236;39;8945;-54
2022/01/31 22:26:50;;;;;;;;;24.00;21.00;;;;;;;;6492432;39;8864;-54
2022/01/31 22:32:52;;;;;;;;;27.00;25.00;;;;;;;;6491830;46;8982;-50
2022/01/31 22:38:58;;;;;;;;;27.25;26.00;;;;;;;;6491649;46;8860;-51
2022/01/31 22:45:02;;;;;;;;;22.00;21.00;;;;;;;;6492160;39;8898;-50
2022/01/31 22:51:04;;;;;;;;;15.50;13.00;;;;;;;;6491596;39;8870;-51
2022/01/31 22:57:06;;;;;;;;;26.75;19.75;;;;;;;;6491438;39;8844;-52
2022/01/31 23:03:09;;;;;;;;;25.00;20.00;;;;;;;;6490584;39;9006;-51
2022/01/31 23:09:11;;;;;;;;;25.50;22.25;;;;;;;;6491178;46;8967;-52
2022/01/31 23:15:21;;;;;;;;;21.50;19.00;;;;;;;;6490465;39;8958;-54
2022/01/31 23:21:43;;;;;;;;;24.00;18.50;;;;;;;;6491588;39;8867;-52
